Time;durP1;ratioP1;P1;durP2;ratioP2;P2;SDS_P1;SDS_P2;PMS_P1;PMS_P2;Temp;Humidity;BMP_temperature;BMP_pressure;BME280_temperature;BME280_humidity;BME280_pressure;Samples;Min_cycle;Max_cycle;Signal;HPM_P1;HPM_P2
2023/07/26 00:01:01;;;;;;;8.20;7.70;;;;;;;13.85;100.00;100633.00;5053989;28;20807;-42
2023/07/26 00:03:29;;;;;;;9.17;8.27;;;;;;;13.79;100.00;100634.69;5053200;28;20502;-41
2023/07/26 00:05:57;;;;;;;7.53;7.07;;;;;;;13.79;100.00;100634.69;5050635;28;20815;-42
2023/07/26 00:08:24;;;;;;;8.23;7.60;;;;;;;13.68;100.00;100621.16;5053863;28;20526;-44
2023/07/26 00:10:52;;;;;;;10.40;8.00;;;;;;;13.65;100.00;100625.09;5054164;28;20991;-42
2023/07/26 00:13:21;;;;;;;8.10;7.30;;;;;;;13.61;100.00;100623.91;5053565;28;20454;-44
2023/07/26 00:15:48;;;;;;;8.60;7.90;;;;;;;13.60;100.00;100619.59;5053292;28;20534;-44
2023/07/26 00:18:17;;;;;;;7.70;7.20;;;;;;;13.61;100.00;100621.25;5053895;28;20432;-44
2023/07/26 00:20:44;;;;;;;8.67;8.10;;;;;;;13.62;100.00;100624.75;5053407;28;20439;-41
2023/07/26 00:23:12;;;;;;;8.50;7.83;;;;;;;13.65;100.00;100629.66;5053495;28;20487;-42
2023/07/26 00:25:40;;;;;;;10.17;9.03;;;;;;;13.69;100.00;100620.97;5053053;28;20817;-41
2023/07/26 00:28:07;;;;;;;9.80;8.97;;;;;;;13.73;100.00;100624.03;5053441;28;20462;-42
2023/07/26 00:30:36;;;;;;;8.70;8.10;;;;;;;13.77;100.00;100627.88;5053136;28;21050;-42
2023/07/26 00:33:04;;;;;;;9.53;8.63;;;;;;;13.82;100.00;100630.75;5052949;28;20450;-45
2023/07/26 00:35:40;;;;;;;9.97;8.97;;;;;;;13.84;100.00;100631.34;5053081;28;20692;-42
2023/07/26 00:38:07;;;;;;;9.30;8.40;;;;;;;13.89;100.00;100633.38;5053328;28;20859;-42
2023/07/26 00:40:36;;;;;;;10.27;9.30;;;;;;;13.91;100.00;100632.09;5053499;28;20518;-45
2023/07/26 00:43:05;;;;;;;11.23;8.60;;;;;;;13.95;100.00;100632.50;5052916;28;20451;-46
2023/07/26 00:45:35;;;;;;;9.10;8.40;;;;;;;13.97;100.00;100636.59;5052555;28;20483;-41
2023/07/26 00:48:06;;;;;;;10.93;9.67;;;;;;;14.01;100.00;100634.28;5053173;28;20431;-42
2023/07/26 00:50:34;;;;;;;10.70;9.80;;;;;;;14.05;100.00;100630.09;5053077;28;20470;-43
2023/07/26 00:53:03;;;;;;;9.60;8.87;;;;;;;14.09;100.00;100637.50;5052742;28;20508;-42
2023/07/26 00:55:31;;;;;;;9.80;9.13;;;;;;;14.11;100.00;100631.91;5052502;28;20455;-43
2023/07/26 00:57:59;;;;;;;9.53;8.83;;;;;;;14.11;100.00;100631.91;5052939;28;20469;-41
2023/07/26 01:00:27;;;;;;;9.47;8.97;;;;;;;14.13;100.00;100636.00;5052953;28;20434;-42
2023/07/26 01:02:54;;;;;;;9.90;9.10;;;;;;;14.15;100.00;100636.59;5052706;28;20534;-41
2023/07/26 01:05:29;;;;;;;10.30;9.20;;;;;;;14.15;100.00;100636.59;5049079;28;20534;-45
2023/07/26 01:08:04;;;;;;;9.90;9.30;;;;;;;14.16;100.00;100634.72;5051870;28;20426;-42
2023/07/26 01:10:38;;;;;;;9.77;9.00;;;;;;;14.16;100.00;100640.09;5052698;28;20510;-44
2023/07/26 01:13:15;;;;;;;10.00;9.47;;;;;;;14.17;100.00;100637.19;5052265;28;20451;-41
2023/07/26 01:15:46;;;;;;;11.13;10.37;;;;;;;-141.22;100.00;77475.22;5051985;28;20548;-46
2023/07/26 01:18:15;;;;;;;10.70;9.67;;;;;;;14.17;100.00;100644.41;5052717;28;21009;-42
2023/07/26 01:20:45;;;;;;;10.17;9.27;;;;;;;14.13;100.00;100649.41;5052411;28;20526;-44
2023/07/26 01:23:14;;;;;;;10.87;10.17;;;;;;;14.03;100.00;100641.06;5051959;28;20455;-43
2023/07/26 01:25:42;;;;;;;11.30;10.60;;;;;;;13.99;100.00;100644.41;5052122;28;20542;-44
2023/07/26 01:28:09;;;;;;;13.60;11.27;;;;;;;13.99;100.00;100644.41;5052407;28;20435;-42
2023/07/26 01:30:37;;;;;;;11.73;10.80;;;;;;;13.84;100.00;100644.75;5052269;28;20467;-45
2023/07/26 01:33:07;;;;;;;10.20;9.60;;;;;;;13.84;100.00;100644.75;5052026;28;20820;-43
2023/07/26 01:35:36;;;;;;;11.80;10.80;;;;;;;13.68;100.00;100646.09;5051715;28;20539;-41
2023/07/26 01:38:04;;;;;;;12.87;11.87;;;;;;;13.65;100.00;100649.22;5052408;28;20590;-41
2023/07/26 01:40:33;;;;;;;13.00;12.00;;;;;;;13.59;100.00;100647.41;5052188;28;20434;-42
2023/07/26 01:43:02;;;;;;;12.30;10.97;;;;;;;13.53;100.00;100647.50;5051915;28;20447;-42
2023/07/26 01:45:30;;;;;;;12.13;11.03;;;;;;;13.46;100.00;100652.88;5051592;28;20471;-43
2023/07/26 01:47:57;;;;;;;12.43;11.17;;;;;;;13.40;100.00;100656.44;5051837;28;20430;-43
2023/07/26 01:50:25;;;;;;;12.37;11.50;;;;;;;13.35;100.00;100642.06;5051724;28;20481;-42
2023/07/26 01:52:53;;;;;;;12.33;11.00;;;;;;;13.32;100.00;100654.00;5051736;28;20475;-41
2023/07/26 01:55:20;;;;;;;15.37;11.60;;;;;;;13.26;100.00;100652.22;5051314;28;20471;-43
2023/07/26 01:57:49;;;;;;;13.00;11.70;;;;;;;13.26;100.00;100655.69;5052109;28;20494;-41
2023/07/26 02:00:17;;;;;;;11.73;11.03;;;;;;;13.25;100.00;100662.09;5051870;28;20432;-41
2023/07/26 02:02:45;;;;;;;12.63;11.63;;;;;;;13.21;100.00;100652.03;5051365;28;20419;-41
2023/07/26 02:05:12;;;;;;;13.23;12.13;;;;;;;13.19;100.00;100659.47;5051253;28;20455;-43
2023/07/26 02:07:40;;;;;;;12.63;11.83;;;;;;;13.17;100.00;100654.31;5051920;28;20862;-41
2023/07/26 02:10:08;;;;;;;13.50;12.37;;;;;;;13.15;100.00;100658.25;5051675;28;20819;-42
2023/07/26 02:12:36;;;;;;;14.10;12.67;;;;;;;13.13;100.00;100655.78;5051459;28;20430;-41
2023/07/26 02:15:07;;;;;;;12.47;11.60;;;;;;;13.11;100.00;100654.38;5051013;28;20557;-42
2023/07/26 02:17:34;;;;;;;12.80;11.80;;;;;;;13.06;100.00;100654.97;5051552;28;20842;-44
2023/07/26 02:20:04;;;;;;;14.43;13.33;;;;;;;13.03;100.00;100651.88;5051574;28;20431;-45
2023/07/26 02:22:32;;;;;;;13.73;12.60;;;;;;;12.98;100.00;100649.03;5051356;28;20427;-41
2023/07/26 02:24:59;;;;;;;13.43;12.10;;;;;;;12.98;100.00;100649.03;5051046;28;20463;-43
2023/07/26 02:27:27;;;;;;;12.43;11.50;;;;;;;12.91;100.00;100650.94;5051460;28;20427;-42
2023/07/26 02:29:56;;;;;;;12.07;11.30;;;;;;;12.86;100.00;100659.59;5051523;28;20475;-41
2023/07/26 02:32:25;;;;;;;13.10;12.07;;;;;;;12.85;100.00;100662.47;5051636;28;20439;-42
2023/07/26 02:34:52;;;;;;;12.77;11.97;;;;;;;12.82;100.00;100658.38;5050785;28;20516;-42
2023/07/26 02:37:20;;;;;;;13.70;12.37;;;;;;;12.81;100.00;100666.63;5051611;28;20459;-43
2023/07/26 02:39:49;;;;;;;13.47;12.43;;;;;;;12.77;100.00;100668.91;5051330;28;20523;-43
2023/07/26 02:42:16;;;;;;;14.80;13.00;;;;;;;12.75;100.00;100671.00;5051051;28;20799;-42
2023/07/26 02:44:46;;;;;;;14.67;13.17;;;;;;;12.72;100.00;100668.75;5050812;28;20469;-42
2023/07/26 02:47:14;;;;;;;14.00;13.10;;;;;;;12.69;100.00;100672.63;5051536;28;20431;-42
2023/07/26 02:49:43;;;;;;;18.57;14.03;;;;;;;12.69;100.00;100675.31;5051409;28;20797;-42
2023/07/26 02:52:11;;;;;;;13.10;12.30;;;;;;;12.70;100.00;100673.47;5051103;28;20470;-45
2023/07/26 02:54:38;;;;;;;14.00;13.10;;;;;;;12.70;100.00;100673.47;5050752;28;20546;-42
2023/07/26 02:57:06;;;;;;;14.30;13.27;;;;;;;12.70;100.00;100673.47;5051149;28;20431;-41
2023/07/26 02:59:34;;;;;;;14.80;13.90;;;;;;;12.68;100.00;100671.00;5051373;28;20643;-46
2023/07/26 03:02:02;;;;;;;14.07;12.83;;;;;;;12.68;100.00;100671.00;5051113;28;20437;-42
2023/07/26 03:04:29;;;;;;;13.30;12.50;;;;;;;12.69;100.00;100677.97;5047417;28;20467;-41
2023/07/26 03:06:58;;;;;;;14.60;13.47;;;;;;;12.69;100.00;100677.97;5051064;28;20786;-41
2023/07/26 03:09:26;;;;;;;13.87;12.93;;;;;;;12.69;100.00;100677.97;5050986;28;20496;-43
2023/07/26 03:11:54;;;;;;;13.63;12.43;;;;;;;12.69;100.00;100677.97;5050979;28;20564;-44
2023/07/26 03:14:21;;;;;;;14.20;13.07;;;;;;;-141.22;100.00;100677.97;5050640;28;20517;-42
2023/07/26 03:16:49;;;;;;;14.03;12.80;;;;;;;-141.22;100.00;77690.59;5050878;28;20427;-41
2023/07/26 03:19:17;;;;;;;14.23;13.27;;;;;;;-141.22;100.00;77690.59;5051170;28;20456;-45
2023/07/26 03:21:45;;;;;;;13.43;12.77;;;;;;;-141.22;100.00;77690.59;5051032;28;20516;-43
2023/07/26 03:24:13;;;;;;;14.70;13.43;;;;;;;;;;5050578;28;20869;-43
2023/07/26 03:26:41;;;;;;;15.33;14.00;;;;;;;-141.22;100.00;77690.59;5050932;28;20909;-41
2023/07/26 03:29:09;;;;;;;14.83;13.57;;;;;;;-141.22;100.00;77690.59;5050861;28;20960;-43
2023/07/26 03:31:36;;;;;;;15.50;14.30;;;;;;;-141.22;100.00;77690.59;5053795;28;20489;-46
2023/07/26 03:34:04;;;;;;;15.13;13.80;;;;;;;-141.22;100.00;77690.59;5053952;28;20467;-41
2023/07/26 03:36:32;;;;;;;14.10;13.23;;;;;;;-141.22;100.00;77690.59;5054686;28;20462;-41
2023/07/26 03:39:00;;;;;;;15.63;14.43;;;;;;;-141.22;100.00;77690.59;5054604;28;20435;-41
2023/07/26 03:41:29;;;;;;;14.20;13.27;;;;;;;-141.22;100.00;77690.59;5054300;28;20423;-43
2023/07/26 03:43:57;;;;;;;14.57;13.27;;;;;;;12.69;100.00;100677.97;5053944;28;20524;-41
2023/07/26 03:46:25;;;;;;;13.53;12.73;;;;;;;12.74;100.00;100685.38;5054241;28;20522;-44
2023/07/26 03:48:52;;;;;;;13.63;12.57;;;;;;;12.75;100.00;100682.50;5054092;28;20431;-41
2023/07/26 03:51:20;;;;;;;13.70;12.90;;;;;;;12.80;100.00;100676.50;5054124;28;20471;-41
2023/07/26 03:53:48;;;;;;;14.33;13.43;;;;;;;12.85;100.00;100689.25;5053775;28;20458;-41
2023/07/26 03:56:16;;;;;;;14.37;13.57;;;;;;;12.90;100.00;100682.25;5054158;28;20434;-46
2023/07/26 03:58:45;;;;;;;13.70;12.87;;;;;;;12.97;100.00;100682.19;5054080;28;20481;-43
2023/07/26 04:01:13;;;;;;;14.67;13.77;;;;;;;13.06;100.00;100687.09;5053933;28;20948;-43
2023/07/26 04:03:41;;;;;;;14.93;13.80;;;;;;;13.14;100.00;100683.38;5053210;28;20459;-41
2023/07/26 04:06:12;;;;;;;13.80;13.20;;;;;;;13.26;100.00;100681.69;5053859;28;20455;-41
2023/07/26 04:08:40;;;;;;;14.63;13.73;;;;;;;13.41;100.00;100694.75;5054110;28;20828;-43
2023/07/26 04:11:07;;;;;;;14.80;13.90;;;;;;;13.51;100.00;100695.09;5053835;28;20864;-42
2023/07/26 04:13:35;;;;;;;13.50;12.70;;;;;;;13.65;100.00;100692.09;5053203;28;20847;-41
2023/07/26 04:16:14;;;;;;;13.97;13.00;;;;;;;13.81;100.00;100691.56;5053795;28;20473;-43
2023/07/26 04:18:41;;;;;;;15.60;14.33;;;;;;;13.93;100.00;100696.22;5053853;28;20435;-42
2023/07/26 04:21:13;;;;;;;14.60;13.70;;;;;;;13.99;100.00;100693.47;5053922;28;20799;-42
2023/07/26 04:23:42;;;;;;;13.83;13.13;;;;;;;14.08;100.00;100694.84;5053040;28;20534;-43
2023/07/26 04:26:10;;;;;;;13.47;12.97;;;;;;;-141.22;100.00;77530.59;5053653;28;20420;-45
2023/07/26 04:28:38;;;;;;;13.20;12.30;;;;;;;-141.22;100.00;77530.59;5053331;28;20431;-44
2023/07/26 04:31:06;;;;;;;14.30;13.30;;;;;;;14.42;100.00;100693.50;5053112;28;20477;-42
2023/07/26 04:33:35;;;;;;;13.73;13.03;;;;;;;14.42;100.00;100693.50;5052782;28;20494;-47
2023/07/26 04:36:03;;;;;;;14.47;13.37;;;;;;;15.77;100.00;100695.63;5053520;28;20513;-42
2023/07/26 04:38:30;;;;;;;12.40;11.73;;;;;;;16.59;100.00;100686.53;5053298;28;20427;-44
2023/07/26 04:40:58;;;;;;;12.17;11.40;;;;;;;17.37;100.00;100685.91;5053047;28;20470;-42
2023/07/26 04:43:25;;;;;;;13.00;12.30;;;;;;;17.87;100.00;100677.88;5053180;28;20453;-44
2023/07/26 04:45:53;;;;;;;12.80;11.90;;;;;;;18.53;100.00;100681.56;5052847;28;20486;-42
2023/07/26 04:48:21;;;;;;;12.30;11.70;;;;;;;19.21;100.00;100667.50;5053253;28;20460;-42
2023/07/26 04:50:50;;;;;;;11.60;10.90;;;;;;;19.76;100.00;100668.06;5053207;28;20526;-44
2023/07/26 04:53:18;;;;;;;10.13;9.73;;;;;;;20.10;100.00;100662.38;5052679;28;20451;-43
2023/07/26 04:55:47;;;;;;;10.97;10.23;;;;;;;20.29;100.00;100658.97;5052453;28;21018;-42
2023/07/26 04:58:15;;;;;;;10.27;9.77;;;;;;;20.68;100.00;100664.03;5053005;28;20427;-42
2023/07/26 05:00:43;;;;;;;10.10;9.67;;;;;;;21.43;100.00;100661.56;5052965;28;20431;-44
2023/07/26 05:03:12;;;;;;;8.90;8.50;;;;;;;22.21;100.00;100666.69;5052560;28;20477;-42
2023/07/26 05:05:40;;;;;;;9.03;8.23;;;;;;;22.57;100.00;100671.78;5052061;28;20458;-44
2023/07/26 05:08:09;;;;;;;7.27;6.73;;;;;;;22.75;96.27;100667.66;5052467;28;20433;-43
2023/07/26 05:10:37;;;;;;;6.43;6.03;;;;;;;23.41;95.84;100673.56;5052913;28;20431;-42
2023/07/26 05:13:05;;;;;;;6.17;5.67;;;;;;;23.95;92.01;100661.69;5052573;28;20561;-45
2023/07/26 05:15:32;;;;;;;4.60;4.33;;;;;;;24.24;87.46;100670.69;5052056;28;20473;-42
2023/07/26 05:18:00;;;;;;;5.10;4.73;;;;;;;24.00;85.15;100676.06;5052428;28;20462;-42
2023/07/26 05:20:28;;;;;;;5.83;5.27;;;;;;;24.12;78.08;100681.97;5052550;28;20442;-43
2023/07/26 05:22:55;;;;;;;4.53;4.13;;;;;;;23.81;75.93;100680.59;5052412;28;20435;-43
2023/07/26 05:25:24;;;;;;;4.93;4.53;;;;;;;23.94;74.72;100679.94;5051900;28;20541;-42
2023/07/26 05:27:54;;;;;;;5.43;4.10;;;;;;;24.22;75.26;100676.41;5052359;28;20469;-44
2023/07/26 05:30:22;;;;;;;4.50;4.20;;;;;;;24.06;78.80;100679.56;5052275;28;20462;-42
2023/07/26 05:32:50;;;;;;;4.60;4.00;;;;;;;23.48;81.14;100690.38;5051905;28;20473;-42
2023/07/26 05:35:18;;;;;;;4.30;4.00;;;;;;;23.41;77.01;100687.19;5051556;28;20466;-44
2023/07/26 05:37:45;;;;;;;4.80;4.40;;;;;;;22.64;78.88;100687.75;5052416;28;20435;-42
2023/07/26 05:40:13;;;;;;;6.33;5.40;;;;;;;23.10;80.44;100691.13;5052200;28;20431;-42
2023/07/26 05:42:42;;;;;;;3.80;3.60;;;;;;;22.97;83.73;100683.56;5051763;28;20839;-42
2023/07/26 05:45:10;;;;;;;4.70;4.40;;;;;;;23.90;73.12;100683.50;5051554;28;20482;-42
2023/07/26 05:47:39;;;;;;;6.23;5.13;;;;;;;24.42;73.05;100682.75;5051938;28;20467;-44
2023/07/26 05:50:07;;;;;;;4.30;3.90;;;;;;;23.79;76.06;100687.41;5052216;28;20438;-43
2023/07/26 05:52:35;;;;;;;4.70;4.30;;;;;;;24.31;77.94;100687.53;5051165;28;21056;-42
2023/07/26 05:55:03;;;;;;;4.00;3.70;;;;;;;25.50;75.56;100681.94;5051437;28;20516;-44
2023/07/26 05:57:31;;;;;;;5.03;4.63;;;;;;;25.68;73.04;100695.56;5052084;28;20435;-43
2023/07/26 06:00:00;;;;;;;5.87;3.90;;;;;;;25.45;71.31;100690.97;5051839;28;20852;-44
2023/07/26 06:02:28;;;;;;;6.30;3.90;;;;;;;24.45;67.41;100696.63;5051797;28;20508;-42
2023/07/26 06:04:56;;;;;;;5.60;4.40;;;;;;;23.65;70.31;100709.06;5048220;28;20459;-42
2023/07/26 06:07:23;;;;;;;3.40;3.10;;;;;;;22.97;72.39;100698.00;5051856;28;20517;-42
2023/07/26 06:09:51;;;;;;;4.20;3.80;;;;;;;22.08;72.09;100706.09;5051517;28;20426;-44
2023/07/26 06:12:19;;;;;;;4.03;3.50;;;;;;;21.67;78.90;100696.31;5051409;28;20478;-43
2023/07/26 06:14:47;;;;;;;3.87;3.67;;;;;;;20.65;80.43;100695.19;5051138;28;20494;-43
2023/07/26 06:17:16;;;;;;;4.83;4.17;;;;;;;19.98;91.42;100692.31;5051449;28;20796;-42
2023/07/26 06:19:43;;;;;;;8.60;4.53;;;;;;;19.75;100.00;100704.31;5051493;28;20438;-42
2023/07/26 06:22:12;;;;;;;5.00;3.97;;;;;;;19.62;100.00;100703.94;5051777;28;20438;-42
2023/07/26 06:24:40;;;;;;;4.03;3.73;;;;;;;19.52;100.00;100701.13;5051138;28;20458;-42
2023/07/26 06:27:07;;;;;;;4.07;3.70;;;;;;;19.30;100.00;100710.06;5051418;28;20809;-42
2023/07/26 06:29:36;;;;;;;7.60;4.10;;;;;;;19.11;100.00;100705.28;5051366;28;20423;-42
2023/07/26 06:32:05;;;;;;;5.83;3.70;;;;;;;18.97;100.00;100715.63;5051352;28;20496;-44
2023/07/26 06:34:34;;;;;;;4.60;4.10;;;;;;;19.16;100.00;100708.84;5050863;28;20471;-42
2023/07/26 06:37:02;;;;;;;4.53;4.13;;;;;;;19.18;100.00;100716.69;5051604;28;20426;-41
2023/07/26 06:39:30;;;;;;;4.17;3.97;;;;;;;19.19;100.00;100719.16;5051242;28;20430;-42
2023/07/26 06:41:57;;;;;;;7.60;4.90;;;;;;;19.13;100.00;100719.34;5051253;28;20431;-44
2023/07/26 06:44:25;;;;;;;4.13;3.83;;;;;;;19.16;100.00;100718.84;5050975;28;20483;-43
2023/07/26 06:46:53;;;;;;;5.57;4.27;;;;;;;19.09;100.00;100726.31;5051418;28;20435;-42
2023/07/26 06:49:20;;;;;;;4.93;4.30;;;;;;;19.10;100.00;100712.56;5051371;28;20434;-42
2023/07/26 06:51:52;;;;;;;5.73;4.23;;;;;;;19.95;100.00;100713.69;5051046;28;20852;-44
2023/07/26 06:54:19;;;;;;;4.90;4.40;;;;;;;20.94;99.22;100711.84;5050501;28;20462;-44
2023/07/26 06:56:48;;;;;;;5.77;3.80;;;;;;;21.68;92.07;100708.81;5051461;28;20493;-42
2023/07/26 06:59:16;;;;;;;6.67;4.50;;;;;;;22.86;87.91;100717.34;5051220;28;20442;-42
2023/07/26 07:01:44;;;;;;;8.80;4.07;;;;;;;23.93;77.71;100707.44;5050930;28;20430;-42
2023/07/26 07:04:12;;;;;;;6.10;4.23;;;;;;;24.75;80.97;100712.63;5050636;28;20459;-42
2023/07/26 07:06:42;;;;;;;3.80;3.60;;;;;;;25.69;76.01;100710.81;5054337;28;20426;-43
2023/07/26 07:09:11;;;;;;;3.90;3.27;;;;;;;25.13;67.09;100699.06;5055183;28;20830;-43
2023/07/26 07:11:39;;;;;;;3.17;2.93;;;;;;;24.53;63.84;100709.59;5054860;28;20430;-44
2023/07/26 07:14:06;;;;;;;6.03;3.33;;;;;;;25.05;61.50;100714.19;5054264;28;20458;-43
2023/07/26 07:16:37;;;;;;;4.10;3.13;;;;;;;24.69;67.28;100726.63;5054729;28;20510;-42
2023/07/26 07:19:05;;;;;;;4.03;3.27;;;;;;;23.72;68.42;100727.75;5054645;28;20875;-42
2023/07/26 07:21:33;;;;;;;6.13;3.17;;;;;;;22.71;71.01;100733.72;5054436;28;20457;-42
2023/07/26 07:24:02;;;;;;;3.40;3.20;;;;;;;21.69;78.42;100737.56;5054428;28;20952;-41
2023/07/26 07:26:31;;;;;;;4.33;3.93;;;;;;;21.01;83.07;100734.09;5054487;28;20868;-44
2023/07/26 07:28:58;;;;;;;5.33;3.50;;;;;;;21.05;93.37;100734.41;5054675;28;20457;-42
2023/07/26 07:31:27;;;;;;;3.67;3.37;;;;;;;21.30;91.58;100734.50;5054266;28;20939;-43
2023/07/26 07:33:54;;;;;;;5.30;3.90;;;;;;;21.15;92.88;100740.69;5053366;28;20814;-42
2023/07/26 07:36:22;;;;;;;3.40;3.20;;;;;;;20.66;93.34;100737.47;5054635;28;20437;-45
2023/07/26 07:38:50;;;;;;;4.03;3.73;;;;;;;20.39;96.46;100736.78;5054530;28;20433;-42
2023/07/26 07:41:17;;;;;;;3.60;3.40;;;;;;;20.08;98.85;100735.69;5054248;28;20430;-43
2023/07/26 07:43:46;;;;;;;7.40;3.80;;;;;;;19.78;99.03;100735.44;5053811;28;20443;-42
2023/07/26 07:46:14;;;;;;;3.90;3.60;;;;;;;19.58;100.00;100741.50;5054263;28;20440;-43
2023/07/26 07:48:42;;;;;;;3.40;3.10;;;;;;;20.12;100.00;100744.13;5054386;28;20427;-42
2023/07/26 07:51:09;;;;;;;3.67;3.30;;;;;;;21.00;95.14;100737.88;5054298;28;20526;-42
2023/07/26 07:53:37;;;;;;;4.17;3.87;;;;;;;21.93;88.39;100730.53;5053491;28;20876;-44
2023/07/26 07:56:05;;;;;;;4.90;3.30;;;;;;;22.29;85.44;100743.03;5054076;28;20435;-42
2023/07/26 07:58:32;;;;;;;6.93;3.60;;;;;;;22.49;79.82;100732.09;5053942;28;20509;-44
2023/07/26 08:01:01;;;;;;;3.77;3.33;;;;;;;22.90;82.44;100738.28;5053847;28;20493;-42
2023/07/26 08:03:29;;;;;;;5.00;3.57;;;;;;;23.28;77.39;100735.91;5053243;28;20977;-42
2023/07/26 08:05:57;;;;;;;3.37;3.07;;;;;;;23.35;74.70;100742.69;5043090;28;20440;-42
2023/07/26 08:08:25;;;;;;;3.83;3.33;;;;;;;23.38;75.10;100736.69;5054188;28;20435;-42
2023/07/26 08:10:53;;;;;;;6.03;3.30;;;;;;;23.06;73.81;100741.72;5053804;28;20430;-42
2023/07/26 08:13:20;;;;;;;3.40;3.10;;;;;;;22.51;74.78;100743.53;5053603;28;20502;-43
2023/07/26 08:15:48;;;;;;;3.53;3.23;;;;;;;22.36;77.03;100729.16;5052772;28;20459;-42
2023/07/26 08:18:17;;;;;;;4.13;3.73;;;;;;;21.92;82.73;100735.16;5053515;28;20437;-42
2023/07/26 08:20:45;;;;;;;4.17;3.77;;;;;;;21.36;86.91;100738.84;5053583;28;20485;-44
2023/07/26 08:23:13;;;;;;;3.50;3.20;;;;;;;20.99;89.01;100739.00;5053349;28;20530;-42
2023/07/26 08:25:41;;;;;;;3.23;2.93;;;;;;;21.26;89.08;100731.53;5053076;28;20489;-46
2023/07/26 08:28:09;;;;;;;3.80;2.87;;;;;;;21.58;85.13;100736.75;5053497;28;20442;-42
2023/07/26 08:30:38;;;;;;;3.17;2.87;;;;;;;21.99;80.84;100722.13;5053819;28;20525;-44
2023/07/26 08:33:06;;;;;;;3.63;3.33;;;;;;;22.30;77.99;100728.34;5053266;28;20485;-42
2023/07/26 08:35:35;;;;;;;3.30;3.10;;;;;;;22.46;78.42;100724.50;5052993;28;20459;-42
2023/07/26 08:38:03;;;;;;;3.30;3.10;;;;;;;22.83;79.63;100732.31;5053273;28;20944;-47
2023/07/26 08:40:31;;;;;;;2.93;2.73;;;;;;;22.78;77.09;100723.38;5053175;28;20435;-42
2023/07/26 08:43:03;;;;;;;3.47;3.17;;;;;;;22.50;77.94;100728.31;5053176;28;20422;-44
2023/07/26 08:45:32;;;;;;;3.60;3.40;;;;;;;22.15;78.97;100730.28;5052773;28;20465;-43
2023/07/26 08:48:00;;;;;;;4.10;3.53;;;;;;;22.47;77.40;100731.56;5053089;28;20883;-45
2023/07/26 08:50:29;;;;;;;5.53;3.77;;;;;;;22.35;76.37;100736.50;5053078;28;20434;-42
2023/07/26 08:52:58;;;;;;;5.80;3.40;;;;;;;22.80;75.37;100732.06;5052794;28;20430;-43
2023/07/26 08:55:26;;;;;;;3.70;3.40;;;;;;;22.76;73.76;100736.44;5052203;28;20521;-42
2023/07/26 08:57:54;;;;;;;3.90;3.60;;;;;;;22.68;73.11;100734.28;5053124;28;20458;-42
2023/07/26 09:00:21;;;;;;;5.77;3.60;;;;;;;22.06;81.15;100749.03;5052801;28;20467;-42
2023/07/26 09:02:50;;;;;;;4.53;3.60;;;;;;;21.06;89.41;100753.09;5052551;28;20455;-42
2023/07/26 09:05:18;;;;;;;4.27;3.20;;;;;;;20.54;91.40;100741.47;5049377;28;20459;-42
2023/07/26 09:07:46;;;;;;;3.47;3.20;;;;;;;20.06;99.39;100743.28;5052486;28;20470;-41
2023/07/26 09:10:15;;;;;;;4.80;3.50;;;;;;;19.74;100.00;100745.16;5052937;28;20435;-45
2023/07/26 09:12:43;;;;;;;4.03;3.40;;;;;;;19.48;100.00;100744.09;5052329;28;20494;-42
2023/07/26 09:15:11;;;;;;;4.17;3.30;;;;;;;19.63;100.00;100743.41;5052225;28;20486;-42
2023/07/26 09:17:40;;;;;;;3.20;3.10;;;;;;;19.74;100.00;100737.06;5052353;28;20496;-43
2023/07/26 09:20:21;;;;;;;3.53;3.30;;;;;;;20.06;100.00;100735.16;5052304;28;20445;-41
2023/07/26 09:22:53;;;;;;;3.73;3.43;;;;;;;20.32;100.00;100739.69;5052362;28;20438;-42
2023/07/26 09:25:33;;;;;;;3.93;3.20;;;;;;;20.79;100.00;100739.69;5052006;28;20459;-42
2023/07/26 09:28:01;;;;;;;3.43;3.13;;;;;;;20.84;99.33;100731.63;5051608;28;20466;-45
2023/07/26 09:30:29;;;;;;;4.67;3.40;;;;;;;21.12;96.49;100727.66;5052469;28;20947;-43
2023/07/26 09:32:57;;;;;;;3.67;3.47;;;;;;;21.16;88.72;100730.66;5051840;28;20817;-43
2023/07/26 09:35:25;;;;;;;5.63;3.50;;;;;;;20.81;91.96;100734.03;5051909;28;20458;-42
2023/07/26 09:37:53;;;;;;;6.67;3.80;;;;;;;20.95;89.10;100730.56;5052250;28;20436;-42
2023/07/26 09:40:33;;;;;;;3.83;3.47;;;;;;;20.77;88.26;100735.63;5052270;28;20472;-44
2023/07/26 09:43:05;;;;;;;5.00;3.50;;;;;;;20.77;89.85;100743.75;5051790;28;20501;-44
2023/07/26 09:45:33;;;;;;;4.80;3.43;;;;;;;20.96;86.30;100745.75;5051603;28;20467;-42
2023/07/26 09:48:08;;;;;;;4.07;3.67;;;;;;;20.95;83.47;100754.97;5052102;28;20439;-43
2023/07/26 09:50:53;;;;;;;3.77;3.47;;;;;;;20.67;75.19;100752.63;5052069;28;20427;-42
2023/07/26 09:53:23;;;;;;;3.90;3.30;;;;;;;20.38;74.35;100754.91;5051644;28;20451;-43
2023/07/26 09:55:52;;;;;;;3.17;2.90;;;;;;;19.97;80.56;100771.06;5051668;28;20478;-42
2023/07/26 09:58:28;;;;;;;3.20;3.00;;;;;;;19.45;78.14;100770.81;5051908;28;20431;-42
2023/07/26 10:01:01;;;;;;;4.10;3.50;;;;;;;19.42;83.37;100784.84;5051835;28;20431;-44
2023/07/26 10:03:31;;;;;;;2.90;2.80;;;;;;;19.33;86.08;100770.94;5051562;28;20472;-44
2023/07/26 10:06:00;;;;;;;3.87;3.50;;;;;;;19.37;88.30;100774.78;5048754;28;20813;-43
2023/07/26 10:08:29;;;;;;;3.10;2.90;;;;;;;19.60;89.30;100758.28;5052057;28;20466;-42
2023/07/26 10:10:58;;;;;;;3.10;2.90;;;;;;;19.99;88.13;100756.19;5051707;28;20466;-42
2023/07/26 10:13:27;;;;;;;3.40;3.00;;;;;;;20.43;87.66;100754.94;5051560;28;20812;-41
2023/07/26 10:15:59;;;;;;;3.60;3.10;;;;;;;20.65;85.65;100759.41;5051166;28;20474;-43
2023/07/26 10:18:29;;;;;;;3.83;2.77;;;;;;;20.90;86.85;100756.84;5051821;28;20415;-42
2023/07/26 10:20:58;;;;;;;3.47;3.27;;;;;;;20.83;85.68;100751.66;5051701;28;20446;-43
2023/07/26 10:23:27;;;;;;;3.97;3.30;;;;;;;20.50;89.96;100762.00;5051705;28;20459;-42
2023/07/26 10:25:56;;;;;;;3.50;3.10;;;;;;;20.26;98.75;100757.00;5051355;28;20431;-43
2023/07/26 10:28:25;;;;;;;3.20;3.00;;;;;;;20.84;89.57;100760.59;5051577;28;21025;-41
2023/07/26 10:30:53;;;;;;;4.50;3.37;;;;;;;21.46;86.56;100763.31;5051322;28;20800;-42
2023/07/26 10:33:22;;;;;;;4.93;3.57;;;;;;;22.00;84.08;100767.22;5051403;28;20481;-42
2023/07/26 10:35:49;;;;;;;7.73;3.37;;;;;;;22.02;80.68;100761.50;5050956;28;20557;-42
2023/07/26 10:38:19;;;;;;;3.77;3.47;;;;;;;22.07;80.51;100757.97;5051346;28;20439;-41
2023/07/26 10:40:47;;;;;;;3.90;3.60;;;;;;;22.14;83.20;100764.75;5055375;28;20429;-42
2023/07/26 10:43:40;;;;;;;4.50;3.63;;;;;;;22.23;78.07;100765.84;5055112;28;20500;-43
2023/07/26 10:46:13;;;;;;;4.50;3.53;;;;;;;22.33;80.61;100765.03;5055730;28;20459;-43
2023/07/26 10:48:42;;;;;;;3.57;3.37;;;;;;;22.90;77.69;100761.94;5055496;28;20800;-42
2023/07/26 10:51:28;;;;;;;3.83;3.40;;;;;;;21.74;75.06;100781.00;5055403;28;20518;-47
2023/07/26 10:53:57;;;;;;;13.20;6.30;;;;;;;20.69;95.48;100780.31;5054709;28;20466;-42
2023/07/26 10:56:27;;;;;;;6.70;4.10;;;;;;;20.21;100.00;100769.66;5055086;28;20430;-42
2023/07/26 10:58:56;;;;;;;5.40;3.80;;;;;;;20.18;100.00;100772.88;5054995;28;20924;-42
2023/07/26 11:01:40;;;;;;;3.87;3.67;;;;;;;20.22;100.00;100771.28;5055093;28;20430;-42
2023/07/26 11:04:12;;;;;;;3.80;3.50;;;;;;;20.06;100.00;100773.06;5054628;28;20471;-42
2023/07/26 11:06:55;;;;;;;4.90;2.87;;;;;;;20.50;100.00;100767.44;5054960;28;21208;-42
2023/07/26 11:09:25;;;;;;;3.63;3.40;;;;;;;20.66;100.00;100771.88;5055281;28;20785;-42
2023/07/26 11:11:55;;;;;;;4.80;3.37;;;;;;;20.30;100.00;100768.94;5054853;28;20430;-42
2023/07/26 11:14:25;;;;;;;5.20;3.80;;;;;;;20.35;100.00;100763.56;5054414;28;20543;-44
2023/07/26 11:16:54;;;;;;;4.73;3.73;;;;;;;20.64;100.00;100764.00;5054948;28;20513;-42
2023/07/26 11:19:25;;;;;;;4.30;4.00;;;;;;;20.81;100.00;100771.97;5054870;28;20868;-42
2023/07/26 11:21:53;;;;;;;3.93;3.63;;;;;;;20.68;100.00;100758.88;5054763;28;21032;-43